Weather at Windwood Farm Airport

Public forecast

Using degrees Fahrenheit for public forecast. Weather courtesy of forecast.io.

Closest aviation weather report (METAR) to Windwood Farm Airport

Closest report is North Texas Regional Airport/Perrin Field, 16.4 nm (30.3 km) WNW. Retrieved 2020/10/26 03:35 UTC (8 minutes ago):

KGYI 260335Z AUTO 05009KT 10SM OVC006 11/10 A3006 RMK AO2 T01100102

Closest aviation forecast (TAF) to Windwood Farm Airport

Closest forecast is Dallas Love Field, 48.9 nm (90.7 km) SSW. Retrieved 2020-10-26 00:36 UTC (3 hours ago):

TAF KDAL 252335Z 2600/2624 06009KT 3SM -DZ BR OVC008 TEMPO 2600/2603 1SM -DZ BR BKN005 FM260900 05010KT 4SM -RADZ BR OVC006 FM261200 05010KT 4SM -RADZ BR OVC005 FM261400 05010KT 3SM -RADZ BR OVC005 FM261600 01013G23KT 2SM SHRA BR OVC005